Time;durP1;ratioP1;P1;durP2;ratioP2;P2;SDS_P1;SDS_P2;PMS_P1;PMS_P2;Temp;Humidity;BMP_temperature;BMP_pressure;BME280_temperature;BME280_humidity;BME280_pressure;Samples;Min_cycle;Max_cycle;Signal;HPM_P1;HPM_P2
2024/01/24 00:00:15;;;;;;;7.70;7.30;;;15.30;99.90;;;;;;5104684;27;20069;-88
2024/01/24 00:02:41;;;;;;;7.30;6.90;;;15.60;99.90;;;;;;5103701;27;20080;-85
2024/01/24 00:05:07;;;;;;;8.73;8.27;;;15.40;99.90;;;;;;5105875;27;20047;-88
2024/01/24 00:07:33;;;;;;;8.48;8.05;;;15.50;99.90;;;;;;5086650;27;20050;-86
2024/01/24 00:09:59;;;;;;;10.27;9.73;;;15.50;99.90;;;;;;5104561;27;20043;-87
2024/01/24 00:12:24;;;;;;;12.18;11.52;;;15.40;99.90;;;;;;5088302;27;20039;-86
2024/01/24 00:14:50;;;;;;;7.22;6.82;;;15.60;99.90;;;;;;5088215;27;20080;-87
2024/01/24 00:17:16;;;;;;;9.77;9.25;;;15.60;99.90;;;;;;5105825;27;20042;-85
2024/01/24 00:19:42;;;;;;;7.22;6.82;;;15.50;99.90;;;;;;5124729;27;20499;-85
2024/01/24 00:22:07;;;;;;;8.55;8.13;;;15.70;99.90;;;;;;5106276;27;20120;-84
2024/01/24 00:24:33;;;;;;;9.75;9.25;;;15.70;99.90;;;;;;5104683;28;20039;-85
2024/01/24 00:26:59;;;;;;;6.88;6.53;;;15.80;99.90;;;;;;5104515;27;20058;-86
2024/01/24 00:29:24;;;;;;;7.30;6.90;;;15.80;99.90;;;;;;5088453;27;20054;-88
2024/01/24 00:31:50;;;;;;;9.95;9.45;;;15.80;99.90;;;;;;5104228;27;20488;-86
2024/01/24 00:34:16;;;;;;;8.13;7.72;;;15.70;99.90;;;;;;5105962;28;20046;-88
2024/01/24 00:36:41;;;;;;;10.55;10.02;;;15.70;99.90;;;;;;5088084;27;20110;-87
2024/01/24 00:39:07;;;;;;;10.60;10.02;;;15.70;99.90;;;;;;5104377;27;20050;-86
2024/01/24 00:41:33;;;;;;;6.88;6.53;;;15.80;99.90;;;;;;5106631;27;20047;-86
2024/01/24 00:43:59;;;;;;;7.68;7.28;;;15.90;99.90;;;;;;5100556;28;20039;-85
2024/01/24 00:46:25;;;;;;;7.43;7.03;;;15.80;99.90;;;;;;5103985;27;20054;-86
2024/01/24 00:48:51;;;;;;;5.25;4.95;;;15.60;99.90;;;;;;5086752;28;20497;-88
2024/01/24 00:51:16;;;;;;;11.90;11.27;;;15.80;99.90;;;;;;5107940;27;20043;-88
2024/01/24 00:53:48;;;;;;;7.88;7.47;;;15.80;99.90;;;;;;5086322;28;20050;-87
2024/01/24 00:56:14;;;;;;;8.80;8.32;;;15.70;99.90;;;;;;5119930;27;20171;-87
2024/01/24 00:58:40;;;;;;;9.18;8.68;;;15.90;99.90;;;;;;5104874;28;20073;-92
2024/01/24 01:01:05;;;;;;;8.77;8.30;;;15.60;99.90;;;;;;5104220;27;20047;-85
2024/01/24 01:03:31;;;;;;;7.30;6.90;;;15.90;99.90;;;;;;5103482;27;20232;-87
2024/01/24 01:05:57;;;;;;;7.30;6.90;;;15.70;99.90;;;;;;5121091;27;20047;-87
2024/01/24 01:08:26;;;;;;;8.00;7.60;;;15.80;99.90;;;;;;5106125;28;20075;-89
2024/01/24 01:10:52;;;;;;;10.05;9.52;;;15.80;99.90;;;;;;5101465;27;20051;-90
2024/01/24 01:13:18;;;;;;;7.93;7.53;;;15.70;99.90;;;;;;5088995;27;20035;-88
2024/01/24 01:15:44;;;;;;;8.73;8.23;;;15.40;99.90;;;;;;5088354;27;20043;-88
2024/01/24 01:18:10;;;;;;;6.97;6.57;;;15.40;99.90;;;;;;5087605;27;20500;-90
2024/01/24 01:20:36;;;;;;;10.68;10.13;;;15.50;99.90;;;;;;5090135;27;20032;-86
2024/01/24 01:23:03;;;;;;;7.85;7.45;;;15.60;99.90;;;;;;5110163;27;20561;-91
2024/01/24 01:25:28;;;;;;;7.88;7.47;;;15.60;99.90;;;;;;5105780;27;20404;-91
2024/01/24 01:27:54;;;;;;;8.90;8.40;;;15.80;99.90;;;;;;5092495;27;20042;-88
2024/01/24 01:30:21;;;;;;;9.60;9.10;;;15.30;99.90;;;;;;5107615;27;20051;-89
2024/01/24 01:32:46;;;;;;;8.73;8.23;;;15.80;99.90;;;;;;5094508;27;20496;-86
2024/01/24 01:35:12;;;;;;;9.30;8.80;;;15.40;99.90;;;;;;5108650;27;20095;-85
2024/01/24 01:37:38;;;;;;;9.18;8.68;;;15.40;99.90;;;;;;5108533;27;20583;-89
2024/01/24 01:40:06;;;;;;;8.07;7.57;;;15.60;99.90;;;;;;5106536;27;20115;-84
2024/01/24 01:42:32;;;;;;;8.07;7.57;;;15.40;99.90;;;;;;5107070;27;20061;-86
2024/01/24 01:44:58;;;;;;;8.45;7.95;;;15.80;99.90;;;;;;5107484;27;20031;-87
2024/01/24 01:47:25;;;;;;;10.35;9.75;;;15.80;99.90;;;;;;5108037;27;20047;-87
2024/01/24 01:49:52;;;;;;;8.65;8.15;;;15.50;99.90;;;;;;5107781;27;20544;-88
2024/01/24 01:52:19;;;;;;;8.45;7.95;;;15.50;99.90;;;;;;5107629;27;20059;-86
2024/01/24 01:54:46;;;;;;;8.52;8.02;;;15.60;99.90;;;;;;5108227;27;20051;-87
2024/01/24 01:57:14;;;;;;;9.05;8.55;;;15.60;99.90;;;;;;5090475;27;20061;-86
2024/01/24 01:59:44;;;;;;;9.30;8.80;;;15.60;99.90;;;;;;5107563;27;20763;-87
2024/01/24 02:02:11;;;;;;;9.05;8.55;;;15.90;99.90;;;;;;5108191;27;20531;-87
2024/01/24 02:04:36;;;;;;;8.90;8.40;;;15.80;99.90;;;;;;5107979;27;20115;-85
2024/01/24 02:07:02;;;;;;;9.18;8.68;;;15.70;99.90;;;;;;5107404;27;20492;-86
2024/01/24 02:09:29;;;;;;;10.52;9.93;;;15.80;99.90;;;;;;5090965;27;20058;-89
2024/01/24 02:11:54;;;;;;;10.13;9.52;;;15.70;99.90;;;;;;5106144;27;20770;-87
2024/01/24 02:14:20;;;;;;;9.88;9.27;;;15.60;99.90;;;;;;5108011;27;20054;-88
2024/01/24 02:16:46;;;;;;;11.05;10.45;;;15.70;99.90;;;;;;5091013;27;20039;-88
2024/01/24 02:19:11;;;;;;;10.73;10.13;;;15.70;99.90;;;;;;5108126;27;20073;-85
2024/01/24 02:21:37;;;;;;;11.93;11.23;;;15.70;99.90;;;;;;5105921;27;20047;-90
2024/01/24 02:24:08;;;;;;;9.02;8.52;;;15.80;99.90;;;;;;5089984;27;20123;-90
2024/01/24 02:26:34;;;;;;;12.05;11.35;;;15.70;99.90;;;;;;5089986;27;20043;-87
2024/01/24 02:29:00;;;;;;;11.57;10.88;;;15.40;99.90;;;;;;5107341;27;20074;-88
2024/01/24 02:31:25;;;;;;;11.20;10.60;;;15.30;99.90;;;;;;5090332;27;20050;-90
2024/01/24 02:33:51;;;;;;;12.10;11.40;;;15.70;99.90;;;;;;5092957;27;20119;-90
2024/01/24 02:36:20;;;;;;;11.43;10.73;;;15.50;99.90;;;;;;5090572;27;20571;-88
2024/01/24 02:38:46;;;;;;;12.02;11.32;;;15.40;99.90;;;;;;5092528;27;20050;-90
2024/01/24 02:41:11;;;;;;;11.63;10.93;;;15.60;99.90;;;;;;5092012;27;20043;-88
2024/01/24 02:43:37;;;;;;;11.70;11.00;;;15.40;99.90;;;;;;5106293;27;20051;-87
2024/01/24 02:46:03;;;;;;;11.63;10.93;;;15.60;99.90;;;;;;5108366;27;20047;-89
2024/01/24 02:48:29;;;;;;;11.30;10.65;;;15.30;99.90;;;;;;5090870;27;20043;-86
2024/01/24 02:50:55;;;;;;;11.82;11.13;;;15.50;99.90;;;;;;5091883;27;20047;-86
2024/01/24 02:53:20;;;;;;;13.07;12.38;;;15.60;99.90;;;;;;5091742;27;20180;-90
2024/01/24 02:55:46;;;;;;;13.38;12.68;;;15.30;99.90;;;;;;5107874;27;20081;-89
2024/01/24 02:58:12;;;;;;;13.45;12.75;;;15.60;99.90;;;;;;5108253;27;20054;-89
2024/01/24 03:00:38;;;;;;;14.00;13.20;;;15.30;99.90;;;;;;5091129;27;20043;-87
2024/01/24 03:03:04;;;;;;;13.02;12.32;;;15.30;99.90;;;;;;5106668;27;20047;-88
2024/01/24 03:05:30;;;;;;;13.40;12.70;;;15.30;99.90;;;;;;5109225;27;20043;-89
2024/01/24 03:07:59;;;;;;;12.10;11.40;;;15.30;99.90;;;;;;5107897;27;20106;-87
2024/01/24 03:10:28;;;;;;;12.85;12.15;;;15.50;99.90;;;;;;5103813;27;20382;-88
2024/01/24 03:12:54;;;;;;;13.35;12.60;;;15.60;99.90;;;;;;5107421;27;20110;-87
2024/01/24 03:15:20;;;;;;;13.85;13.05;;;15.20;99.90;;;;;;5110036;27;20051;-86
2024/01/24 03:17:46;;;;;;;13.55;12.85;;;15.00;99.90;;;;;;5107405;27;20035;-91
2024/01/24 03:20:14;;;;;;;11.90;11.20;;;15.30;99.90;;;;;;5108877;27;20039;-87
2024/01/24 03:22:43;;;;;;;15.48;14.65;;;15.10;99.90;;;;;;5111099;27;20043;-90
2024/01/24 03:25:11;;;;;;;13.77;12.98;;;15.10;99.90;;;;;;5091747;27;20046;-87
2024/01/24 03:27:37;;;;;;;13.55;12.80;;;15.00;99.90;;;;;;5093121;27;20145;-91
2024/01/24 03:30:04;;;;;;;11.60;10.90;;;15.10;99.90;;;;;;5106103;27;20047;-89
2024/01/24 03:32:29;;;;;;;12.15;11.45;;;15.00;99.90;;;;;;5090269;27;20866;-87
2024/01/24 03:34:56;;;;;;;13.75;12.95;;;14.90;99.90;;;;;;5107704;27;20055;-88
2024/01/24 03:37:22;;;;;;;12.20;11.50;;;14.90;99.90;;;;;;5108295;27;20131;-89
2024/01/24 03:39:48;;;;;;;12.02;11.32;;;14.90;99.90;;;;;;5109760;27;20047;-90
2024/01/24 03:42:13;;;;;;;11.43;10.73;;;15.00;99.90;;;;;;5091301;27;20457;-88
2024/01/24 03:44:39;;;;;;;11.23;10.60;;;14.80;99.90;;;;;;5095211;27;20137;-87
2024/01/24 03:47:05;;;;;;;12.80;12.10;;;15.00;99.90;;;;;;5094341;27;20063;-91
2024/01/24 03:49:31;;;;;;;10.77;10.18;;;15.00;99.90;;;;;;5092625;27;20102;-90
2024/01/24 03:51:57;;;;;;;11.70;11.00;;;14.90;99.90;;;;;;5111886;27;20043;-90
2024/01/24 03:54:23;;;;;;;10.77;10.18;;;14.80;99.90;;;;;;5111252;27;20043;-88
2024/01/24 03:56:49;;;;;;;11.70;11.05;;;14.90;99.90;;;;;;5092648;27;20133;-89
2024/01/24 03:59:15;;;;;;;9.32;8.75;;;14.90;99.90;;;;;;5110488;27;20048;-91
2024/01/24 04:01:41;;;;;;;8.27;7.78;;;14.80;99.90;;;;;;5111110;27;20740;-91
2024/01/24 04:04:07;;;;;;;10.70;10.10;;;14.80;99.90;;;;;;5110055;27;20130;-88
2024/01/24 04:06:33;;;;;;;9.77;9.23;;;14.80;99.90;;;;;;5092941;27;20051;-89
2024/01/24 04:08:59;;;;;;;8.45;7.95;;;14.70;99.90;;;;;;5106358;27;20438;-88
2024/01/24 04:11:25;;;;;;;9.68;9.13;;;14.80;99.90;;;;;;5108291;27;20091;-88
2024/01/24 04:13:55;;;;;;;9.00;8.50;;;14.90;99.90;;;;;;5110515;27;20039;-87
2024/01/24 04:16:21;;;;;;;9.15;8.65;;;14.70;99.90;;;;;;5090287;27;20047;-87
2024/01/24 04:18:46;;;;;;;9.23;8.73;;;14.60;99.90;;;;;;5092940;27;20049;-88
2024/01/24 04:21:12;;;;;;;9.00;8.50;;;14.70;99.90;;;;;;5093933;27;20043;-89
2024/01/24 04:23:38;;;;;;;10.32;9.77;;;14.70;99.90;;;;;;5108847;27;20073;-88
2024/01/24 04:26:04;;;;;;;9.52;9.02;;;14.70;16.70;;;;;;5092950;27;20518;-85
2024/01/24 04:28:33;;;;;;;9.10;8.60;;;14.60;1.00;;;;;;5111013;27;20055;-90
2024/01/24 04:30:59;;;;;;;8.88;8.38;;;14.70;99.90;;;;;;5107476;27;20042;-90
2024/01/24 04:33:25;;;;;;;8.65;8.15;;;14.70;99.90;;;;;;5088896;28;20095;-88
2024/01/24 04:35:51;;;;;;;8.30;7.82;;;14.70;99.90;;;;;;5090961;28;20043;-90
2024/01/24 04:38:16;;;;;;;7.20;6.80;;;14.70;99.90;;;;;;5106513;28;20089;-87
2024/01/24 04:40:42;;;;;;;7.85;7.45;;;14.70;99.90;;;;;;5091668;28;20758;-88
2024/01/24 04:43:08;;;;;;;6.65;6.25;;;14.70;99.90;;;;;;5093413;27;20047;-88
2024/01/24 04:45:34;;;;;;;8.65;8.15;;;14.70;99.90;;;;;;5108266;28;20507;-87
2024/01/24 04:48:00;;;;;;;7.07;6.68;;;14.70;99.90;;;;;;5108887;27;20035;-88
2024/01/24 04:50:25;;;;;;;7.90;7.50;;;14.70;99.90;;;;;;5091599;28;20145;-91
2024/01/24 04:52:51;;;;;;;6.55;6.15;;;14.80;99.90;;;;;;5090715;28;20576;-89
2024/01/24 04:55:17;;;;;;;6.72;6.32;;;14.70;99.90;;;;;;5090517;27;20039;-86
2024/01/24 04:57:43;;;;;;;7.32;6.93;;;14.80;99.90;;;;;;5098115;27;20043;-89
2024/01/24 05:00:10;;;;;;;10.07;9.55;;;14.80;99.90;;;;;;5093221;27;20043;-86
2024/01/24 05:02:37;;;;;;;9.10;8.60;;;14.70;99.90;;;;;;5116017;27;20874;-89
2024/01/24 05:05:06;;;;;;;8.25;7.80;;;14.70;99.90;;;;;;5097514;27;20043;-85
2024/01/24 05:07:33;;;;;;;7.78;7.38;;;14.70;11.50;;;;;;5114700;27;20051;-88
2024/01/24 05:09:59;;;;;;;7.00;6.60;;;14.80;1.00;;;;;;5092632;27;20480;-87
2024/01/24 05:12:25;;;;;;;9.43;8.93;;;14.70;1.00;;;;;;5109008;27;20112;-88
2024/01/24 05:14:51;;;;;;;8.55;8.10;;;14.70;1.00;;;;;;5094372;27;20047;-87
2024/01/24 05:17:17;;;;;;;7.07;6.68;;;14.60;1.00;;;;;;5095119;27;20047;-87
2024/01/24 05:19:43;;;;;;;8.63;8.13;;;14.60;99.90;;;;;;5111833;27;20381;-88
2024/01/24 05:22:09;;;;;;;8.57;8.07;;;14.70;99.90;;;;;;5112090;27;20039;-89
2024/01/24 05:24:35;;;;;;;7.55;7.15;;;14.70;99.90;;;;;;5094229;27;20048;-87
2024/01/24 05:27:00;;;;;;;7.07;6.68;;;14.70;99.90;;;;;;5109761;27;20077;-88
2024/01/24 05:29:26;;;;;;;7.07;6.68;;;14.60;99.90;;;;;;5109434;27;20047;-88
2024/01/24 05:31:52;;;;;;;8.85;8.35;;;14.60;99.90;;;;;;5109797;27;20070;-89
2024/01/24 05:34:18;;;;;;;8.35;7.95;;;14.50;99.90;;;;;;5107630;27;20445;-90
2024/01/24 05:36:44;;;;;;;7.13;6.72;;;14.40;99.90;;;;;;5112823;27;20460;-87
2024/01/24 05:39:10;;;;;;;9.23;8.73;;;14.30;99.80;;;;;;5107782;27;20039;-89
2024/01/24 05:41:38;;;;;;;8.77;8.27;;;14.30;98.30;;;;;;5093645;27;20065;-85
2024/01/24 05:44:04;;;;;;;6.72;6.32;;;14.30;38.20;;;;;;5088100;27;20483;-86
2024/01/24 05:46:30;;;;;;;6.95;6.55;;;14.20;49.90;;;;;;5113571;27;20086;-86
2024/01/24 05:48:56;;;;;;;7.75;7.35;;;14.20;1.00;;;;;;5111185;27;20051;-88
2024/01/24 05:51:22;;;;;;;6.80;6.40;;;14.10;6.40;;;;;;5090562;27;20584;-88
2024/01/24 05:53:47;;;;;;;7.50;7.10;;;14.00;13.10;;;;;;5092476;27;20074;-89
2024/01/24 05:56:14;;;;;;;5.78;5.47;;;14.10;1.00;;;;;;5110000;27;20035;-87
2024/01/24 05:58:39;;;;;;;6.15;5.85;;;14.00;1.00;;;;;;5089279;27;20096;-88
2024/01/24 06:01:05;;;;;;;7.20;6.80;;;14.10;1.00;;;;;;5094908;27;20108;-88
2024/01/24 06:03:33;;;;;;;5.57;5.28;;;14.00;1.00;;;;;;5108843;27;20070;-89
2024/01/24 06:05:58;;;;;;;6.68;6.28;;;13.90;1.00;;;;;;5103010;27;20663;-87
2024/01/24 06:08:24;;;;;;;5.80;5.50;;;13.90;1.00;;;;;;5089912;27;20082;-90
2024/01/24 06:10:50;;;;;;;5.63;5.32;;;13.80;1.00;;;;;;5087809;27;20046;-87
2024/01/24 06:13:16;;;;;;;6.60;6.28;;;13.80;1.00;;;;;;5106495;27;20552;-88
2024/01/24 06:15:42;;;;;;;5.35;5.05;;;13.80;1.00;;;;;;5106247;27;20081;-90
2024/01/24 06:18:07;;;;;;;5.80;5.50;;;13.80;1.00;;;;;;5106796;27;20145;-89
2024/01/24 06:20:33;;;;;;;5.47;5.18;;;13.80;1.00;;;;;;5091026;27;20039;-86
2024/01/24 06:22:59;;;;;;;5.70;5.40;;;13.70;1.00;;;;;;5111094;27;20737;-86
2024/01/24 06:25:25;;;;;;;5.25;4.95;;;13.60;1.00;;;;;;5105935;27;20793;-86
2024/01/24 06:27:51;;;;;;;5.97;5.68;;;13.70;1.00;;;;;;5109292;27;20050;-86
2024/01/24 06:30:17;;;;;;;5.70;5.40;;;13.60;1.00;;;;;;5089192;27;20046;-88
2024/01/24 06:32:42;;;;;;;5.55;5.25;;;13.60;1.00;;;;;;5085691;27;20047;-88
2024/01/24 06:35:09;;;;;;;4.80;4.53;;;13.70;1.00;;;;;;5093849;27;20400;-88
2024/01/24 06:37:36;;;;;;;5.75;5.45;;;13.80;1.00;;;;;;5105884;27;20074;-87
2024/01/24 06:40:03;;;;;;;5.65;5.35;;;13.60;1.00;;;;;;5089854;27;20055;-87
2024/01/24 06:42:30;;;;;;;4.97;4.68;;;13.70;1.00;;;;;;5084109;27;20397;-86
2024/01/24 06:44:56;;;;;;;5.32;5.03;;;13.60;1.00;;;;;;5106430;27;20039;-86
2024/01/24 06:47:21;;;;;;;5.70;5.40;;;13.70;1.00;;;;;;5124574;27;20154;-90
2024/01/24 06:49:47;;;;;;;5.22;4.93;;;13.60;1.00;;;;;;5088424;27;20039;-88
2024/01/24 06:52:13;;;;;;;5.85;5.55;;;13.50;1.00;;;;;;5107793;27;20129;-85
2024/01/24 06:54:38;;;;;;;5.20;4.90;;;13.60;1.00;;;;;;5091553;27;20051;-90
2024/01/24 06:57:04;;;;;;;4.97;4.68;;;13.60;1.00;;;;;;5088215;27;20061;-86
2024/01/24 06:59:33;;;;;;;5.20;4.90;;;13.60;1.00;;;;;;5108805;27;20461;-87
2024/01/24 07:01:59;;;;;;;5.50;5.20;;;13.70;1.00;;;;;;5103632;27;20438;-89
2024/01/24 07:04:26;;;;;;;5.20;4.90;;;13.60;1.00;;;;;;5107832;27;20043;-87
2024/01/24 07:06:51;;;;;;;5.55;5.25;;;13.70;1.00;;;;;;5105718;27;20039;-90
2024/01/24 07:09:17;;;;;;;5.75;5.45;;;13.80;1.00;;;;;;5122965;27;20118;-86
2024/01/24 07:11:43;;;;;;;6.28;5.97;;;13.70;1.00;;;;;;5103809;27;20550;-86
2024/01/24 07:14:09;;;;;;;5.45;5.15;;;13.70;1.00;;;;;;5090231;27;20035;-88
2024/01/24 07:16:35;;;;;;;6.07;5.78;;;13.70;1.00;;;;;;5090716;27;20062;-88
2024/01/24 07:19:02;;;;;;;5.85;5.55;;;13.60;1.00;;;;;;5087605;27;20050;-87
2024/01/24 07:21:30;;;;;;;6.15;5.85;;;13.80;1.00;;;;;;5091877;27;20116;-87
2024/01/24 07:23:55;;;;;;;5.40;5.10;;;13.70;1.00;;;;;;5106742;27;20043;-89
2024/01/24 07:26:21;;;;;;;5.40;5.10;;;13.70;1.00;;;;;;5111160;27;20057;-87
2024/01/24 07:28:48;;;;;;;6.15;5.85;;;13.70;1.00;;;;;;5108414;27;20050;-87
2024/01/24 07:31:14;;;;;;;5.75;5.45;;;13.60;1.00;;;;;;5111616;27;20045;-87
2024/01/24 07:33:41;;;;;;;5.95;5.65;;;13.70;1.00;;;;;;5091107;27;20047;-89
2024/01/24 07:36:06;;;;;;;5.68;5.38;;;13.70;1.00;;;;;;5107583;27;20119;-87
2024/01/24 07:38:32;;;;;;;5.78;5.47;;;13.70;1.00;;;;;;5108357;27;20122;-88
2024/01/24 07:40:58;;;;;;;5.90;5.60;;;13.70;1.00;;;;;;5107223;27;20039;-87
2024/01/24 07:43:23;;;;;;;6.05;5.75;;;13.70;1.00;;;;;;5086954;27;20057;-90
2024/01/24 07:45:50;;;;;;;5.55;5.25;;;13.60;1.00;;;;;;5108885;27;20065;-86
2024/01/24 07:48:16;;;;;;;5.63;5.32;;;13.60;1.00;;;;;;5092827;27;20054;-89
2024/01/24 07:50:42;;;;;;;6.00;5.70;;;13.60;1.00;;;;;;5091662;27;20403;-90
2024/01/24 07:53:09;;;;;;;5.35;5.05;;;13.60;1.00;;;;;;5109430;27;20038;-87
2024/01/24 07:55:35;;;;;;;6.50;6.20;;;13.60;1.00;;;;;;5108607;27;20118;-89
2024/01/24 07:58:00;;;;;;;5.80;5.50;;;13.70;1.00;;;;;;5107706;27;20134;-86
2024/01/24 08:00:26;;;;;;;5.88;5.57;;;13.60;1.00;;;;;;5102483;27;20511;-88
2024/01/24 08:02:52;;;;;;;5.15;4.85;;;13.70;1.00;;;;;;5108645;27;20108;-88
2024/01/24 08:05:18;;;;;;;4.63;4.43;;;13.60;1.00;;;;;;5090953;27;20046;-90
2024/01/24 08:07:44;;;;;;;5.57;5.28;;;13.60;1.00;;;;;;5087660;27;20039;-87
2024/01/24 08:10:13;;;;;;;4.68;4.47;;;13.70;1.00;;;;;;5090985;27;20057;-89
2024/01/24 08:12:40;;;;;;;5.68;5.38;;;13.60;1.00;;;;;;5089641;27;20110;-90
2024/01/24 08:15:12;;;;;;;5.45;5.15;;;13.60;1.00;;;;;;5106201;27;20046;-86
2024/01/24 08:17:38;;;;;;;5.60;5.30;;;13.50;1.00;;;;;;5088699;27;20454;-85
2024/01/24 08:20:04;;;;;;;5.55;5.25;;;13.50;1.00;;;;;;5092735;27;20107;-87
2024/01/24 08:22:31;;;;;;;5.45;5.15;;;13.50;1.00;;;;;;5105858;27;20423;-88
2024/01/24 08:24:56;;;;;;;5.38;5.07;;;13.50;1.00;;;;;;5110491;28;20114;-87
2024/01/24 08:27:22;;;;;;;5.15;4.85;;;13.60;1.00;;;;;;5109012;28;20050;-88
2024/01/24 08:29:48;;;;;;;5.25;4.95;;;13.60;1.00;;;;;;5093349;28;20049;-88
2024/01/24 08:32:14;;;;;;;5.88;5.57;;;13.50;1.00;;;;;;5090345;27;20411;-86
2024/01/24 08:34:40;;;;;;;9.38;8.88;;;13.50;1.00;;;;;;5107129;28;20047;-87
2024/01/24 08:37:05;;;;;;;4.68;4.47;;;13.50;1.00;;;;;;5109011;28;20054;-87
2024/01/24 08:39:35;;;;;;;4.85;4.65;;;13.40;1.00;;;;;;5092497;28;20110;-85
2024/01/24 08:42:01;;;;;;;5.22;4.97;;;13.50;1.00;;;;;;5109400;28;20454;-89
2024/01/24 08:44:27;;;;;;;5.00;4.78;;;13.40;1.00;;;;;;5110118;28;20069;-89
2024/01/24 08:46:53;;;;;;;4.78;4.57;;;13.40;1.00;;;;;;5094285;27;20488;-87
2024/01/24 08:49:19;;;;;;;5.10;4.85;;;13.40;1.00;;;;;;5109581;28;20051;-88
2024/01/24 08:51:44;;;;;;;4.65;4.45;;;13.40;1.00;;;;;;5108384;27;20125;-85
2024/01/24 08:54:13;;;;;;;5.40;5.10;;;13.40;1.00;;;;;;5092410;28;20035;-86
2024/01/24 08:56:39;;;;;;;5.28;5.00;;;13.40;1.00;;;;;;5092673;28;20043;-86
2024/01/24 08:59:06;;;;;;;5.00;4.78;;;13.50;1.00;;;;;;5108597;28;20126;-88
2024/01/24 09:01:32;;;;;;;5.10;4.85;;;13.50;1.00;;;;;;5085524;27;20088;-89
2024/01/24 09:03:57;;;;;;;4.78;4.57;;;13.50;1.00;;;;;;5089145;28;20039;-88
2024/01/24 09:06:25;;;;;;;5.03;4.80;;;13.50;1.00;;;;;;5088296;28;20035;-87
2024/01/24 09:08:52;;;;;;;4.18;3.97;;;13.50;1.00;;;;;;5108859;28;20047;-87
2024/01/24 09:11:18;;;;;;;5.50;5.20;;;13.50;1.00;;;;;;5106731;27;20297;-88
2024/01/24 09:13:46;;;;;;;4.18;3.97;;;13.50;1.00;;;;;;5108883;28;20039;-88
2024/01/24 09:16:12;;;;;;;5.43;5.13;;;13.50;1.00;;;;;;5089805;28;20059;-86
2024/01/24 09:18:39;;;;;;;4.70;4.50;;;13.60;1.00;;;;;;5090847;28;20043;-85
2024/01/24 09:21:05;;;;;;;4.18;3.97;;;13.60;1.00;;;;;;5091562;28;20042;-85
2024/01/24 09:23:30;;;;;;;5.25;4.97;;;13.50;1.00;;;;;;5123892;28;20043;-86
2024/01/24 09:25:56;;;;;;;5.38;5.10;;;13.50;1.00;;;;;;5108801;27;20076;-87
2024/01/24 09:28:22;;;;;;;4.57;4.38;;;13.50;1.00;;;;;;5090215;28;20492;-88
2024/01/24 09:30:47;;;;;;;5.50;5.20;;;13.70;1.00;;;;;;5104490;28;20054;-87
2024/01/24 09:33:13;;;;;;;4.75;4.55;;;13.70;1.00;;;;;;5107974;28;20043;-88
2024/01/24 09:35:40;;;;;;;5.53;5.22;;;13.70;1.00;;;;;;5091715;28;20131;-87
2024/01/24 09:38:06;;;;;;;5.82;5.53;;;13.80;1.00;;;;;;5108531;28;20070;-87
2024/01/24 09:40:32;;;;;;;5.57;5.28;;;13.70;1.00;;;;;;5091861;27;20547;-85
2024/01/24 09:43:01;;;;;;;7.28;6.88;;;13.80;1.00;;;;;;5095038;27;20062;-86
2024/01/24 09:45:28;;;;;;;5.40;5.10;;;13.80;1.00;;;;;;5094819;27;20126;-87
2024/01/24 09:47:57;;;;;;;5.68;5.38;;;13.80;1.00;;;;;;5112546;27;20107;-88
2024/01/24 09:50:24;;;;;;;5.50;5.20;;;13.80;1.00;;;;;;5092578;27;20047;-89
2024/01/24 09:52:55;;;;;;;5.28;4.97;;;13.80;99.90;;;;;;5111471;27;20122;-84
2024/01/24 09:55:22;;;;;;;6.53;6.20;;;13.80;99.90;;;;;;5094886;27;20091;-87
2024/01/24 09:57:48;;;;;;;4.88;4.65;;;13.90;1.00;;;;;;5110383;27;20404;-85
2024/01/24 10:00:15;;;;;;;6.05;5.75;;;13.80;1.00;;;;;;5111575;27;20039;-87
2024/01/24 10:02:46;;;;;;;5.68;5.38;;;13.80;1.00;;;;;;5093958;27;20047;-87
2024/01/24 10:05:17;;;;;;;5.03;4.75;;;13.90;1.00;;;;;;5094520;27;20047;-85
2024/01/24 10:07:43;;;;;;;4.70;4.50;;;13.90;1.00;;;;;;5111414;27;20054;-86
2024/01/24 10:10:12;;;;;;;5.55;5.25;;;13.90;1.00;;;;;;5094883;27;20047;-84
2024/01/24 10:12:39;;;;;;;5.35;5.05;;;14.00;99.90;;;;;;5096441;27;20592;-87
2024/01/24 10:15:05;;;;;;;6.15;5.85;;;14.10;99.90;;;;;;5111557;27;20092;-88
2024/01/24 10:17:34;;;;;;;5.85;5.55;;;14.10;99.90;;;;;;5113822;27;20039;-86
2024/01/24 10:20:00;;;;;;;7.65;7.25;;;14.00;99.90;;;;;;5095337;27;20074;-87
2024/01/24 10:22:26;;;;;;;5.57;5.28;;;14.00;99.90;;;;;;5112886;27;20512;-87
2024/01/24 10:24:55;;;;;;;5.35;5.05;;;13.90;99.90;;;;;;5111906;27;20039;-88
2024/01/24 10:27:20;;;;;;;6.07;5.78;;;14.00;99.90;;;;;;5111693;27;20051;-86
2024/01/24 10:29:46;;;;;;;5.63;5.32;;;14.00;99.90;;;;;;5111418;27;20038;-84
2024/01/24 10:32:12;;;;;;;4.75;4.55;;;14.00;99.90;;;;;;5092837;27;20074;-87
2024/01/24 10:34:38;;;;;;;5.40;5.10;;;13.90;99.90;;;;;;5111551;27;20099;-87
2024/01/24 10:37:07;;;;;;;6.18;5.88;;;14.00;99.90;;;;;;5112463;27;20047;-86
2024/01/24 10:39:35;;;;;;;6.32;6.03;;;14.10;99.90;;;;;;5113552;27;20039;-85
2024/01/24 10:42:08;;;;;;;4.68;4.47;;;14.00;99.90;;;;;;5111472;27;20099;-86
2024/01/24 10:44:35;;;;;;;4.47;4.28;;;14.20;99.90;;;;;;5095066;27;20504;-85
2024/01/24 10:47:05;;;;;;;5.13;4.82;;;14.20;99.90;;;;;;5110103;27;20054;-87
2024/01/24 10:49:31;;;;;;;5.18;4.88;;;14.30;99.90;;;;;;5090123;27;20051;-87
2024/01/24 10:51:58;;;;;;;9.90;9.32;;;14.30;99.90;;;;;;5109599;27;20449;-86
2024/01/24 10:54:23;;;;;;;5.03;4.75;;;14.30;99.90;;;;;;5091276;27;20051;-88
2024/01/24 10:56:50;;;;;;;4.78;4.55;;;14.30;99.90;;;;;;5110272;27;20416;-87
2024/01/24 10:59:17;;;;;;;5.30;5.00;;;14.20;99.90;;;;;;5110798;27;20050;-85
2024/01/24 11:01:43;;;;;;;4.90;4.68;;;14.20;99.90;;;;;;5112852;27;20043;-86
2024/01/24 11:04:10;;;;;;;4.78;4.57;;;14.20;99.90;;;;;;5112588;27;20054;-89
2024/01/24 11:06:47;;;;;;;4.47;4.28;;;14.40;99.90;;;;;;5110566;27;20054;-86
2024/01/24 11:09:23;;;;;;;5.40;5.10;;;14.40;99.90;;;;;;5109455;27;20050;-88
2024/01/24 11:11:56;;;;;;;5.03;4.78;;;14.30;99.90;;;;;;5093352;27;20039;-87
2024/01/24 11:14:34;;;;;;;6.43;6.10;;;14.30;99.90;;;;;;5110819;27;20043;-87
2024/01/24 11:17:05;;;;;;;3.97;3.78;;;14.30;99.90;;;;;;5093707;27;20073;-85
2024/01/24 11:19:31;;;;;;;4.03;3.83;;;14.40;99.90;;;;;;5128150;27;20035;-91
2024/01/24 11:22:04;;;;;;;4.40;4.20;;;14.50;99.90;;;;;;5107254;27;20479;-87
2024/01/24 11:24:45;;;;;;;4.25;4.05;;;14.50;99.90;;;;;;5107733;27;20043;-88
2024/01/24 11:27:36;;;;;;;3.08;2.92;;;14.50;99.90;;;;;;5092631;27;20122;-86
2024/01/24 11:30:17;;;;;;;4.22;4.03;;;14.60;99.90;;;;;;5109241;27;20047;-88
2024/01/24 11:32:46;;;;;;;4.30;4.10;;;14.70;99.90;;;;;;5109102;27;20043;-88
2024/01/24 11:35:37;;;;;;;4.57;4.38;;;14.60;99.90;;;;;;5107549;27;20062;-87
2024/01/24 11:38:36;;;;;;;4.18;3.97;;;14.50;99.90;;;;;;5108930;27;20043;-86
2024/01/24 11:41:10;;;;;;;4.68;4.47;;;14.40;99.90;;;;;;5108920;27;20042;-86
2024/01/24 11:43:35;;;;;;;4.32;4.13;;;14.30;99.90;;;;;;5109653;27;20051;-89
2024/01/24 11:46:06;;;;;;;2.95;2.85;;;14.40;99.90;;;;;;5112246;27;20083;-85
2024/01/24 11:48:34;;;;;;;3.97;3.78;;;14.50;99.90;;;;;;5108739;27;20513;-86
2024/01/24 11:51:15;;;;;;;4.53;4.32;;;14.50;99.90;;;;;;5107628;27;20618;-88
2024/01/24 11:53:41;;;;;;;3.60;3.40;;;14.40;99.90;;;;;;5108225;27;20751;-84
2024/01/24 11:56:10;;;;;;;4.72;4.53;;;14.60;99.90;;;;;;5109713;27;20047;-85
2024/01/24 11:58:36;;;;;;;2.90;2.80;;;14.50;99.90;;;;;;5110936;27;20859;-86
2024/01/24 12:01:03;;;;;;;3.45;3.30;;;14.40;99.90;;;;;;5110370;27;20061;-85
2024/01/24 12:03:29;;;;;;;3.15;3.05;;;14.40;99.90;;;;;;5110978;27;20051;-85
2024/01/24 12:05:55;;;;;;;3.38;3.20;;;14.30;99.90;;;;;;5108694;27;20051;-89
2024/01/24 12:08:21;;;;;;;3.05;2.95;;;14.20;99.90;;;;;;5094805;27;20043;-86
2024/01/24 12:10:47;;;;;;;3.65;3.45;;;14.20;99.90;;;;;;5110072;27;20795;-86
2024/01/24 12:13:14;;;;;;;4.05;3.85;;;14.10;99.90;;;;;;5107766;27;20118;-86
2024/01/24 12:15:42;;;;;;;3.28;3.15;;;14.10;99.90;;;;;;5109415;27;20207;-90
2024/01/24 12:18:17;;;;;;;3.22;3.10;;;14.00;99.90;;;;;;5110027;27;20046;-90
2024/01/24 12:20:52;;;;;;;2.55;2.45;;;13.90;99.90;;;;;;5109474;28;20063;-87
2024/01/24 12:23:19;;;;;;;2.47;2.38;;;13.90;99.90;;;;;;5090027;27;20039;-91
2024/01/24 12:25:44;;;;;;;2.70;2.60;;;13.90;99.90;;;;;;5109703;27;20130;-87
2024/01/24 12:28:12;;;;;;;2.38;2.28;;;13.80;99.90;;;;;;5091297;28;20123;-87
2024/01/24 12:30:38;;;;;;;2.40;2.30;;;13.90;99.90;;;;;;5108262;28;20050;-86
2024/01/24 12:33:04;;;;;;;2.85;2.75;;;13.80;99.90;;;;;;5109205;27;20050;-87
2024/01/24 12:35:31;;;;;;;3.65;3.45;;;13.80;99.90;;;;;;5107944;28;20039;-89
2024/01/24 12:38:00;;;;;;;2.00;1.90;;;13.80;99.90;;;;;;5109185;28;20078;-87
2024/01/24 12:40:31;;;;;;;2.28;2.17;;;13.90;99.90;;;;;;5091074;28;20058;-87
2024/01/24 12:42:58;;;;;;;2.20;2.10;;;13.90;99.90;;;;;;5090990;28;20043;-87
2024/01/24 12:45:25;;;;;;;3.40;3.20;;;14.00;99.90;;;;;;5104336;28;20043;-90